createdAt,value
2017-12-20T00:00:15.790Z,91.76
2017-12-20T00:01:17.673Z,91.95
2017-12-20T00:02:19.491Z,91.57
2017-12-20T00:03:21.307Z,91.76
2017-12-20T00:04:23.172Z,91.66
2017-12-20T00:05:25.029Z,91.76
2017-12-20T00:06:26.913Z,91.95
2017-12-20T00:07:41.065Z,91.28
2017-12-20T00:08:42.921Z,91.00
2017-12-20T00:09:44.797Z,91.00
2017-12-20T00:10:46.664Z,91.19
2017-12-20T00:11:48.455Z,91.47
2017-12-20T00:12:50.256Z,91.47
2017-12-20T00:13:52.110Z,91.47
2017-12-20T00:14:53.972Z,91.38
2017-12-20T00:15:55.835Z,91.47
2017-12-20T00:17:09.985Z,91.47
2017-12-20T00:18:11.842Z,91.00
2017-12-20T00:19:13.702Z,91.38
2017-12-20T00:20:15.585Z,91.19
2017-12-20T00:21:17.403Z,91.57
2017-12-20T00:22:19.202Z,91.47
2017-12-20T00:23:21.084Z,91.47
2017-12-20T00:24:22.966Z,91.09
2017-12-20T00:25:24.827Z,91.09
2017-12-20T00:26:39.029Z,91.00
2017-12-20T00:27:40.913Z,90.91
2017-12-20T00:28:42.791Z,91.09
2017-12-20T00:29:44.648Z,91.28
2017-12-20T00:30:46.444Z,91.09
2017-12-20T00:31:48.243Z,91.09
2017-12-20T00:32:50.124Z,91.28
2017-12-20T00:33:52.008Z,90.62
2017-12-20T00:34:53.889Z,91.38
2017-12-20T00:36:08.040Z,91.24
2017-12-20T00:37:09.923Z,92.19
2017-12-20T00:38:11.814Z,92.09
2017-12-20T00:39:13.685Z,91.90
2017-12-20T00:40:15.500Z,92.09
2017-12-20T00:41:17.294Z,92.57
2017-12-20T00:42:19.156Z,92.57
2017-12-20T00:43:21.016Z,92.38
2017-12-20T00:44:22.895Z,92.47
2017-12-20T00:45:37.041Z,92.57
2017-12-20T00:46:38.904Z,92.33
2017-12-20T00:47:40.782Z,92.33
2017-12-20T00:48:42.650Z,92.33
2017-12-20T00:49:44.466Z,92.61
2017-12-20T00:50:46.258Z,92.80
2017-12-20T00:51:48.115Z,91.95
2017-12-20T00:52:49.976Z,92.42
2017-12-20T00:53:51.834Z,92.23
2017-12-20T00:55:06.012Z,91.85
2017-12-20T00:56:07.873Z,92.23
2017-12-20T00:57:09.747Z,91.95
2017-12-20T00:58:11.611Z,91.57
2017-12-20T00:59:13.431Z,91.76
2017-12-20T01:00:15.249Z,91.66
2017-12-20T01:01:17.104Z,91.76
2017-12-20T01:02:18.964Z,91.38
2017-12-20T01:03:20.823Z,91.47
2017-12-20T01:04:34.967Z,91.85
2017-12-20T01:05:36.830Z,91.38
2017-12-20T01:06:38.707Z,91.09
2017-12-20T01:07:40.577Z,91.38
2017-12-20T01:08:42.390Z,90.81
2017-12-20T01:09:44.209Z,90.81
2017-12-20T01:10:46.090Z,90.72
2017-12-20T01:11:47.954Z,90.72
2017-12-20T01:12:49.835Z,90.72
2017-12-20T01:14:03.982Z,90.24
2017-12-20T01:15:05.844Z,90.43
2017-12-20T01:16:07.725Z,90.62
2017-12-20T01:17:09.584Z,90.81
2017-12-20T01:18:11.381Z,90.72
2017-12-20T01:19:13.198Z,90.81
2017-12-20T01:20:15.058Z,91.28
2017-12-20T01:21:16.934Z,91.28
2017-12-20T01:22:18.793Z,91.00
2017-12-20T01:23:32.965Z,91.95
2017-12-20T01:24:34.826Z,92.00
2017-12-20T01:25:36.706Z,91.90
2017-12-20T01:26:38.567Z,91.81
2017-12-20T01:27:40.381Z,92.57
2017-12-20T01:28:42.184Z,92.38
2017-12-20T01:29:44.064Z,92.76
2017-12-20T01:30:45.943Z,92.47
2017-12-20T01:31:47.804Z,92.66
2017-12-20T01:33:01.935Z,92.85
2017-12-20T01:34:03.815Z,92.38
2017-12-20T01:35:05.695Z,92.47
2017-12-20T01:36:07.552Z,91.81
2017-12-20T01:37:09.366Z,92.28
2017-12-20T01:38:11.162Z,92.57
2017-12-20T01:39:13.045Z,92.47
2017-12-20T01:40:14.922Z,93.23
2017-12-20T01:41:16.785Z,93.04
2017-12-20T01:42:30.905Z,92.85
2017-12-20T01:43:32.765Z,93.42
2017-12-20T01:44:34.628Z,93.61
2017-12-20T01:45:36.484Z,93.99
2017-12-20T01:46:38.280Z,93.80
2017-12-20T01:47:40.076Z,93.99
2017-12-20T01:48:41.955Z,94.23
2017-12-20T01:49:43.819Z,93.99
2017-12-20T01:50:45.682Z,93.80
2017-12-20T01:51:59.879Z,94.46
2017-12-20T01:53:01.759Z,94.56
2017-12-20T01:54:03.615Z,94.27
2017-12-20T01:55:05.479Z,94.37
2017-12-20T01:56:07.297Z,94.56
2017-12-20T01:57:09.095Z,94.46
2017-12-20T01:58:10.970Z,93.89
2017-12-20T01:59:12.830Z,94.27
2017-12-20T02:00:14.714Z,93.99
2017-12-20T02:01:28.865Z,93.80
2017-12-20T02:02:30.748Z,94.08
2017-12-20T02:03:32.600Z,94.18
2017-12-20T02:04:34.469Z,93.23
2017-12-20T02:05:36.279Z,93.32
2017-12-20T02:06:38.076Z,92.99
2017-12-20T02:07:39.941Z,93.37
2017-12-20T02:08:41.819Z,93.08
2017-12-20T02:09:43.703Z,92.33
2017-12-20T02:10:57.853Z,92.42
2017-12-20T02:11:59.732Z,93.27
2017-12-20T02:13:01.614Z,92.61
2017-12-20T02:14:03.498Z,92.61
2017-12-20T02:15:05.316Z,92.61
2017-12-20T02:16:07.136Z,92.71
2017-12-20T02:17:09.019Z,92.33
2017-12-20T02:18:10.899Z,91.95
2017-12-20T02:19:12.759Z,92.04
2017-12-20T02:20:26.936Z,91.66
2017-12-20T02:21:28.811Z,91.95
2017-12-20T02:22:30.676Z,91.66
2017-12-20T02:23:32.562Z,91.66
2017-12-20T02:24:34.356Z,91.95
2017-12-20T02:25:36.202Z,91.66
2017-12-20T02:26:38.018Z,91.76
2017-12-20T02:27:39.879Z,92.04
2017-12-20T02:28:41.737Z,92.14
2017-12-20T02:29:55.870Z,91.66
2017-12-20T02:30:57.751Z,91.95
2017-12-20T02:31:59.625Z,91.95
2017-12-20T02:33:01.484Z,92.14
2017-12-20T02:34:03.280Z,91.95
2017-12-20T02:35:05.078Z,91.00
2017-12-20T02:36:06.933Z,91.19
2017-12-20T02:37:08.787Z,91.09
2017-12-20T02:38:10.649Z,91.28
2017-12-20T02:39:24.802Z,91.09
2017-12-20T02:40:26.680Z,91.38
2017-12-20T02:41:28.564Z,91.09
2017-12-20T02:42:30.443Z,90.81
2017-12-20T02:43:32.240Z,91.28
2017-12-20T02:44:34.055Z,91.28
2017-12-20T02:45:35.910Z,90.62
2017-12-20T02:46:37.775Z,90.72
2017-12-20T02:47:39.655Z,90.72
2017-12-20T02:48:53.804Z,90.62
2017-12-20T02:49:55.664Z,90.72
2017-12-20T02:50:57.520Z,90.81
2017-12-20T02:51:59.382Z,90.34
2017-12-20T02:53:01.192Z,90.72
2017-12-20T02:54:02.993Z,90.62
2017-12-20T02:55:04.873Z,90.81
2017-12-20T02:56:06.754Z,90.05
2017-12-20T02:57:08.620Z,90.24
2017-12-20T02:58:22.750Z,90.34
2017-12-20T02:59:24.548Z,89.96
2017-12-20T03:00:26.392Z,90.34
2017-12-20T03:01:28.268Z,90.43
2017-12-20T03:02:30.128Z,90.05
2017-12-20T03:03:31.967Z,89.77
2017-12-20T03:04:33.787Z,90.05
2017-12-20T03:05:35.578Z,90.15
2017-12-20T03:06:37.440Z,89.67
2017-12-20T03:07:51.634Z,89.67
2017-12-20T03:08:53.496Z,89.96
2017-12-20T03:09:55.376Z,89.86
2017-12-20T03:10:57.236Z,90.15
2017-12-20T03:11:59.034Z,89.67
2017-12-20T03:13:00.849Z,89.96
2017-12-20T03:14:02.713Z,90.43
2017-12-20T03:15:04.575Z,90.05
2017-12-20T03:16:06.457Z,90.43
2017-12-20T03:17:20.590Z,89.67
2017-12-20T03:18:22.444Z,89.67
2017-12-20T03:19:24.307Z,89.48
2017-12-20T03:20:26.191Z,89.96
2017-12-20T03:21:28.010Z,89.77
2017-12-20T03:22:29.803Z,89.86
2017-12-20T03:23:31.661Z,89.58
2017-12-20T03:24:33.519Z,89.67
2017-12-20T03:25:35.380Z,89.48
2017-12-20T03:26:49.580Z,89.48
2017-12-20T03:27:51.440Z,89.48
2017-12-20T03:28:53.294Z,89.48
2017-12-20T03:29:55.158Z,89.11
2017-12-20T03:30:56.975Z,89.67
2017-12-20T03:31:58.769Z,89.48
2017-12-20T03:33:00.568Z,89.20
2017-12-20T03:34:02.386Z,89.48
2017-12-20T03:35:04.203Z,89.58
2017-12-20T03:36:18.351Z,89.86
2017-12-20T03:37:20.219Z,90.05
2017-12-20T03:38:22.095Z,89.96
2017-12-20T03:39:23.973Z,89.77
2017-12-20T03:40:25.761Z,89.67
2017-12-20T03:41:27.564Z,89.48
2017-12-20T03:42:29.447Z,89.58
2017-12-20T03:43:31.309Z,90.15
2017-12-20T03:44:33.171Z,89.58
2017-12-20T03:45:47.408Z,89.39
2017-12-20T03:46:49.299Z,89.58
2017-12-20T03:47:51.159Z,89.01
2017-12-20T03:48:53.018Z,89.39
2017-12-20T03:49:54.813Z,88.92
2017-12-20T03:50:56.611Z,88.73
2017-12-20T03:51:58.495Z,88.63
2017-12-20T03:53:00.356Z,89.11
2017-12-20T03:54:02.218Z,88.92
2017-12-20T03:55:16.350Z,88.73
2017-12-20T03:56:18.228Z,89.11
2017-12-20T03:57:20.084Z,89.20
2017-12-20T03:58:21.950Z,88.73
2017-12-20T03:59:23.745Z,89.01
2017-12-20T04:00:25.563Z,89.58
2017-12-20T04:01:27.444Z,89.39
2017-12-20T04:02:29.301Z,89.67
2017-12-20T04:03:31.158Z,89.48
2017-12-20T04:04:45.294Z,89.86
2017-12-20T04:05:47.178Z,90.15
2017-12-20T04:06:49.055Z,89.96
2017-12-20T04:07:50.913Z,90.15
2017-12-20T04:08:52.713Z,89.77
2017-12-20T04:09:54.505Z,90.05
2017-12-20T04:10:56.365Z,89.67
2017-12-20T04:11:58.229Z,89.58
2017-12-20T04:13:00.108Z,89.86
2017-12-20T04:14:14.237Z,90.15
2017-12-20T04:15:16.096Z,89.86
2017-12-20T04:16:17.958Z,90.05
2017-12-20T04:17:19.837Z,89.67
2017-12-20T04:18:21.637Z,90.15
2017-12-20T04:19:23.454Z,90.15
2017-12-20T04:20:25.312Z,90.43
2017-12-20T04:21:27.172Z,89.96
2017-12-20T04:22:29.031Z,89.96
2017-12-20T04:23:43.163Z,89.96
2017-12-20T04:24:45.023Z,90.53
2017-12-20T04:25:46.883Z,90.15
2017-12-20T04:26:48.742Z,90.15
2017-12-20T04:27:50.563Z,89.96
2017-12-20T04:28:52.385Z,90.24
2017-12-20T04:29:54.266Z,89.96
2017-12-20T04:30:56.125Z,90.05
2017-12-20T04:31:58.007Z,89.77
2017-12-20T04:33:12.159Z,89.67
2017-12-20T04:34:14.018Z,90.05
2017-12-20T04:35:15.877Z,90.05
2017-12-20T04:36:17.735Z,89.67
2017-12-20T04:37:19.525Z,89.77
2017-12-20T04:38:21.322Z,89.67
2017-12-20T04:39:23.180Z,89.77
2017-12-20T04:40:25.038Z,89.67
2017-12-20T04:41:26.895Z,89.96
2017-12-20T04:42:41.026Z,89.67
2017-12-20T04:43:42.890Z,89.86
2017-12-20T04:44:44.787Z,89.67
2017-12-20T04:45:46.668Z,88.73
2017-12-20T04:46:48.486Z,89.11
2017-12-20T04:47:50.286Z,89.34
2017-12-20T04:48:52.144Z,89.53
2017-12-20T04:49:54.005Z,89.82
2017-12-20T04:50:55.883Z,89.91
2017-12-20T04:52:10.012Z,90.01
2017-12-20T04:53:11.876Z,90.67
2017-12-20T04:54:13.759Z,90.29
2017-12-20T04:55:15.639Z,90.86
2017-12-20T04:56:17.446Z,91.05
2017-12-20T04:57:19.256Z,91.33
2017-12-20T04:58:21.118Z,91.43
2017-12-20T04:59:22.975Z,92.09
2017-12-20T05:00:24.854Z,91.81
2017-12-20T05:01:39.104Z,92.09
2017-12-20T05:02:41.160Z,92.00
2017-12-20T05:03:43.157Z,92.09
2017-12-20T05:04:45.145Z,92.66
2017-12-20T05:05:47.164Z,92.19
2017-12-20T05:06:49.183Z,92.19
2017-12-20T05:07:51.190Z,92.00
2017-12-20T05:08:53.235Z,92.57
2017-12-20T05:09:55.244Z,92.24
2017-12-20T05:11:09.607Z,92.71
2017-12-20T05:12:11.485Z,91.81
2017-12-20T05:13:13.344Z,93.13
2017-12-20T05:14:15.214Z,92.33
2017-12-20T05:15:17.029Z,92.61
2017-12-20T05:16:18.821Z,93.04
2017-12-20T05:17:20.694Z,92.38
2017-12-20T05:18:22.547Z,92.76
2017-12-20T05:19:24.409Z,92.28
2017-12-20T05:20:38.539Z,92.09
2017-12-20T05:21:40.403Z,92.00
2017-12-20T05:22:42.287Z,92.57
2017-12-20T05:23:44.165Z,91.71
2017-12-20T05:24:45.967Z,92.00
2017-12-20T05:25:47.764Z,92.00
2017-12-20T05:26:49.623Z,92.00
2017-12-20T05:27:51.486Z,91.90
2017-12-20T05:28:53.367Z,92.47
2017-12-20T05:30:07.524Z,92.38
2017-12-20T05:31:09.438Z,92.57
2017-12-20T05:32:11.288Z,92.76
2017-12-20T05:33:13.168Z,92.47
2017-12-20T05:34:14.963Z,92.76
2017-12-20T05:35:16.764Z,92.57
2017-12-20T05:36:18.637Z,92.38
2017-12-20T05:37:20.495Z,92.47
2017-12-20T05:38:22.375Z,91.90
2017-12-20T05:39:36.556Z,92.00
2017-12-20T05:40:38.442Z,92.00
2017-12-20T05:41:40.330Z,92.47
2017-12-20T05:42:42.191Z,92.38
2017-12-20T05:43:43.990Z,91.90
2017-12-20T05:44:45.811Z,92.00
2017-12-20T05:45:47.693Z,91.85
2017-12-20T05:46:49.576Z,91.05
2017-12-20T05:47:51.453Z,91.19
2017-12-20T05:49:05.582Z,91.28
2017-12-20T05:50:07.444Z,91.28
2017-12-20T05:51:09.314Z,91.47
2017-12-20T05:52:11.203Z,90.81
2017-12-20T05:53:13.020Z,90.81
2017-12-20T05:54:14.838Z,90.72
2017-12-20T05:55:16.697Z,89.67
2017-12-20T05:56:18.581Z,89.96
2017-12-20T05:57:20.461Z,90.15
2017-12-20T05:58:34.646Z,90.43
2017-12-20T05:59:36.530Z,89.86
2017-12-20T06:00:38.414Z,90.24
2017-12-20T06:01:40.294Z,90.24
2017-12-20T06:02:42.113Z,89.77
2017-12-20T06:03:43.929Z,89.96
2017-12-20T06:04:45.788Z,89.67
2017-12-20T06:05:47.648Z,89.77
2017-12-20T06:06:49.557Z,90.05
2017-12-20T06:08:03.691Z,90.05
2017-12-20T06:09:05.551Z,89.67
2017-12-20T06:10:07.407Z,89.58
2017-12-20T06:11:09.291Z,89.20
2017-12-20T06:12:11.112Z,89.58
2017-12-20T06:13:12.946Z,89.77
2017-12-20T06:14:14.798Z,89.77
2017-12-20T06:15:16.653Z,89.96
2017-12-20T06:16:18.511Z,89.86
2017-12-20T06:17:32.644Z,90.15
2017-12-20T06:18:34.502Z,89.86
2017-12-20T06:19:36.361Z,89.48
2017-12-20T06:20:38.219Z,89.58
2017-12-20T06:21:40.016Z,89.96
2017-12-20T06:22:41.830Z,89.77
2017-12-20T06:23:43.693Z,89.48
2017-12-20T06:24:45.557Z,89.39
2017-12-20T06:25:47.409Z,89.77
2017-12-20T06:27:01.568Z,89.58
2017-12-20T06:28:03.428Z,89.48
2017-12-20T06:29:05.288Z,89.67
2017-12-20T06:30:07.164Z,89.58
2017-12-20T06:31:08.964Z,89.48
2017-12-20T06:32:10.778Z,89.58
2017-12-20T06:33:12.640Z,89.58
2017-12-20T06:34:14.499Z,89.48
2017-12-20T06:35:16.378Z,89.77
2017-12-20T06:36:30.509Z,89.58
2017-12-20T06:37:32.368Z,89.67
2017-12-20T06:38:34.233Z,89.67
2017-12-20T06:39:36.113Z,89.67
2017-12-20T06:40:37.909Z,89.20
2017-12-20T06:41:39.707Z,89.58
2017-12-20T06:42:41.593Z,89.58
2017-12-20T06:43:43.452Z,89.58
2017-12-20T06:44:45.350Z,89.67
2017-12-20T06:45:59.451Z,89.48
2017-12-20T06:47:01.321Z,89.67
2017-12-20T06:48:03.177Z,89.58
2017-12-20T06:49:05.063Z,89.77
2017-12-20T06:50:06.892Z,89.67
2017-12-20T06:51:08.694Z,89.77
2017-12-20T06:52:10.551Z,89.77
2017-12-20T06:53:12.411Z,90.05
2017-12-20T06:54:14.294Z,90.05
2017-12-20T06:55:28.450Z,89.48
2017-12-20T06:56:30.335Z,89.86
2017-12-20T06:57:32.193Z,89.86
2017-12-20T06:58:34.062Z,90.05
2017-12-20T06:59:35.886Z,89.86
2017-12-20T07:00:37.708Z,89.58
2017-12-20T07:01:39.596Z,89.96
2017-12-20T07:02:41.454Z,90.43
2017-12-20T07:03:43.325Z,89.67
2017-12-20T07:04:57.478Z,89.77
2017-12-20T07:05:59.365Z,89.67
2017-12-20T07:07:01.225Z,89.96
2017-12-20T07:08:03.093Z,89.39
2017-12-20T07:09:04.888Z,89.67
2017-12-20T07:10:06.711Z,89.20
2017-12-20T07:11:08.597Z,89.58
2017-12-20T07:12:10.463Z,89.77
2017-12-20T07:13:12.323Z,90.24
2017-12-20T07:14:26.508Z,89.77
2017-12-20T07:15:28.389Z,89.58
2017-12-20T07:16:30.252Z,89.48
2017-12-20T07:17:32.112Z,89.67
2017-12-20T07:18:33.925Z,89.58
2017-12-20T07:19:35.711Z,89.77
2017-12-20T07:20:37.581Z,89.58
2017-12-20T07:21:39.463Z,89.67
2017-12-20T07:22:41.330Z,89.67
2017-12-20T07:23:55.487Z,89.58
2017-12-20T07:24:57.375Z,89.58
2017-12-20T07:25:59.236Z,90.05
2017-12-20T07:27:01.098Z,90.05
2017-12-20T07:28:02.895Z,89.86
2017-12-20T07:29:04.699Z,89.48
2017-12-20T07:30:06.590Z,89.67
2017-12-20T07:31:08.476Z,89.58
2017-12-20T07:32:10.363Z,89.77
2017-12-20T07:33:24.548Z,89.48
2017-12-20T07:34:26.434Z,89.58
2017-12-20T07:35:28.299Z,89.48
2017-12-20T07:36:30.160Z,89.48
2017-12-20T07:37:31.963Z,89.11
2017-12-20T07:38:33.789Z,89.01
2017-12-20T07:39:35.673Z,89.11
2017-12-20T07:40:37.539Z,89.25
2017-12-20T07:41:39.426Z,88.77
2017-12-20T07:42:53.582Z,89.20
2017-12-20T07:43:55.443Z,88.73
2017-12-20T07:44:57.308Z,88.58
2017-12-20T07:45:59.175Z,88.39
2017-12-20T07:47:01.000Z,88.68
2017-12-20T07:48:02.818Z,88.58
2017-12-20T07:49:04.687Z,88.87
2017-12-20T07:50:06.545Z,88.87
2017-12-20T07:51:08.414Z,88.58
2017-12-20T07:52:22.574Z,88.87
2017-12-20T07:53:24.465Z,88.68
2017-12-20T07:54:26.348Z,88.29
2017-12-20T07:55:28.216Z,88.68
2017-12-20T07:56:30.022Z,88.10
2017-12-20T07:57:31.838Z,88.68
2017-12-20T07:58:33.713Z,87.92
2017-12-20T07:59:35.602Z,87.92
2017-12-20T08:00:37.471Z,87.82
2017-12-20T08:01:51.629Z,88.01
2017-12-20T08:02:53.519Z,87.92
2017-12-20T08:03:55.407Z,87.45
2017-12-20T08:04:57.282Z,87.16
2017-12-20T08:05:59.107Z,86.87
2017-12-20T08:07:00.912Z,86.87
2017-12-20T08:08:02.798Z,87.16
2017-12-20T08:09:04.670Z,87.25
2017-12-20T08:10:06.558Z,87.16
2017-12-20T08:11:20.718Z,86.87
2017-12-20T08:12:22.580Z,86.97
2017-12-20T08:13:24.438Z,86.40
2017-12-20T08:14:26.305Z,86.40
2017-12-20T08:15:28.105Z,86.40
2017-12-20T08:16:29.909Z,85.83
2017-12-20T08:17:31.776Z,85.74
2017-12-20T08:18:33.637Z,85.83
2017-12-20T08:19:35.499Z,85.26
2017-12-20T08:20:49.642Z,85.30
2017-12-20T08:21:51.528Z,85.02
2017-12-20T08:22:53.392Z,84.83
2017-12-20T08:23:55.259Z,85.30
2017-12-20T08:24:57.087Z,84.64
2017-12-20T08:25:58.912Z,84.83
2017-12-20T08:27:00.779Z,84.17
2017-12-20T08:28:02.664Z,84.26
2017-12-20T08:29:04.534Z,84.36
2017-12-20T08:30:18.743Z,83.88
2017-12-20T08:31:20.609Z,83.97
2017-12-20T08:32:22.472Z,83.78
2017-12-20T08:33:24.335Z,83.88
2017-12-20T08:34:26.138Z,83.69
2017-12-20T08:35:27.938Z,83.59
2017-12-20T08:36:29.808Z,83.69
2017-12-20T08:37:31.694Z,83.69
2017-12-20T08:38:33.564Z,83.22
2017-12-20T08:39:47.695Z,83.50
2017-12-20T08:40:49.565Z,83.59
2017-12-20T08:41:51.426Z,83.12
2017-12-20T08:42:53.317Z,83.54
2017-12-20T08:43:55.113Z,83.16
2017-12-20T08:44:56.918Z,83.16
2017-12-20T08:45:58.814Z,82.78
2017-12-20T08:47:00.700Z,82.40
2017-12-20T08:48:02.567Z,82.40
2017-12-20T08:49:16.699Z,82.78
2017-12-20T08:50:18.563Z,82.31
2017-12-20T08:51:20.430Z,82.40
2017-12-20T08:52:22.291Z,82.59
2017-12-20T08:53:24.099Z,82.69
2017-12-20T08:54:25.897Z,82.21
2017-12-20T08:55:27.770Z,82.31
2017-12-20T08:56:29.657Z,82.50
2017-12-20T08:57:31.520Z,82.40
2017-12-20T08:58:45.639Z,82.40
2017-12-20T08:59:47.448Z,81.84
2017-12-20T09:00:49.292Z,82.21
2017-12-20T09:01:51.160Z,81.45
2017-12-20T09:02:53.024Z,81.45
2017-12-20T09:03:54.871Z,81.45
2017-12-20T09:04:56.692Z,81.59
2017-12-20T09:05:58.502Z,81.26
2017-12-20T09:07:00.362Z,81.30
2017-12-20T09:08:14.644Z,81.12
2017-12-20T09:09:16.517Z,81.02
2017-12-20T09:10:18.402Z,80.35
2017-12-20T09:11:20.291Z,80.07
2017-12-20T09:12:22.095Z,79.97
2017-12-20T09:13:23.971Z,79.50
2017-12-20T09:14:25.805Z,79.22
2017-12-20T09:15:27.692Z,79.79
2017-12-20T09:16:29.559Z,79.12
2017-12-20T09:17:43.741Z,78.83
2017-12-20T09:18:45.604Z,79.79
2017-12-20T09:19:47.468Z,79.12
2017-12-20T09:20:49.336Z,79.03
2017-12-20T09:21:51.163Z,78.74
2017-12-20T09:22:52.988Z,78.55
2017-12-20T09:23:54.884Z,79.03
2017-12-20T09:24:56.768Z,78.93
2017-12-20T09:25:58.659Z,78.93
2017-12-20T09:27:12.816Z,79.50
2017-12-20T09:28:14.686Z,79.60
2017-12-20T09:29:16.545Z,79.60
2017-12-20T09:30:18.413Z,79.69
2017-12-20T09:31:20.218Z,79.60
2017-12-20T09:32:22.021Z,79.60
2017-12-20T09:33:23.915Z,79.69
2017-12-20T09:34:25.806Z,79.74
2017-12-20T09:35:27.666Z,80.03
2017-12-20T09:36:41.857Z,80.16
2017-12-20T09:37:43.746Z,80.45
2017-12-20T09:38:45.640Z,80.55
2017-12-20T09:39:47.528Z,80.35
2017-12-20T09:40:49.332Z,79.50
2017-12-20T09:41:51.131Z,79.60
2017-12-20T09:42:52.963Z,79.41
2017-12-20T09:43:54.800Z,79.88
2017-12-20T09:44:56.606Z,79.03
2017-12-20T09:46:10.743Z,79.12
2017-12-20T09:47:12.633Z,78.83
2017-12-20T09:48:14.520Z,79.12
2017-12-20T09:49:16.393Z,78.83
2017-12-20T09:50:18.220Z,79.03
2017-12-20T09:51:20.039Z,79.16
2017-12-20T09:52:21.912Z,78.69
2017-12-20T09:53:23.796Z,78.17
2017-12-20T09:54:25.663Z,78.21
2017-12-20T09:55:39.801Z,77.92
2017-12-20T09:56:41.671Z,77.92
2017-12-20T09:57:43.533Z,77.55
2017-12-20T09:58:45.427Z,77.45
2017-12-20T09:59:47.251Z,77.45
2017-12-20T10:00:49.056Z,77.45
2017-12-20T10:01:50.925Z,77.36
2017-12-20T10:02:52.816Z,77.64
2017-12-20T10:03:54.712Z,77.55
2017-12-20T10:05:08.867Z,77.45
2017-12-20T10:06:10.735Z,77.51
2017-12-20T10:07:12.622Z,77.89
2017-12-20T10:08:14.490Z,77.98
2017-12-20T10:09:16.288Z,78.27
2017-12-20T10:10:18.097Z,78.55
2017-12-20T10:11:19.983Z,78.27
2017-12-20T10:12:21.852Z,78.45
2017-12-20T10:13:23.740Z,78.61
2017-12-20T10:14:37.879Z,79.03
2017-12-20T10:15:39.768Z,78.83
2017-12-20T10:16:41.657Z,78.64
2017-12-20T10:17:43.519Z,78.36
2017-12-20T10:18:45.390Z,78.17
2017-12-20T10:19:47.155Z,77.98
2017-12-20T10:20:49.045Z,77.51
2017-12-20T10:21:50.913Z,77.31
2017-12-20T10:22:52.777Z,76.97
2017-12-20T10:24:06.969Z,76.88
2017-12-20T10:25:08.861Z,77.07
2017-12-20T10:26:10.752Z,76.78
2017-12-20T10:27:12.638Z,76.59
2017-12-20T10:28:14.440Z,76.31
2017-12-20T10:29:16.247Z,76.50
2017-12-20T10:30:18.140Z,75.74
2017-12-20T10:31:20.030Z,75.64
2017-12-20T10:32:21.919Z,75.84
2017-12-20T10:33:36.059Z,75.74
2017-12-20T10:34:37.918Z,75.93
2017-12-20T10:35:39.780Z,76.06
2017-12-20T10:36:41.642Z,75.87
2017-12-20T10:37:43.448Z,75.68
2017-12-20T10:38:45.249Z,75.21
2017-12-20T10:39:47.122Z,75.02
2017-12-20T10:40:49.008Z,75.49
2017-12-20T10:41:50.895Z,75.68
2017-12-20T10:43:05.029Z,75.02
2017-12-20T10:44:06.900Z,74.82
2017-12-20T10:45:08.754Z,74.92
2017-12-20T10:46:10.623Z,74.63
2017-12-20T10:47:12.429Z,74.44
2017-12-20T10:48:14.255Z,73.97
2017-12-20T10:49:16.147Z,73.97
2017-12-20T10:50:18.033Z,74.73
2017-12-20T10:51:19.920Z,74.16
2017-12-20T10:52:34.059Z,73.78
2017-12-20T10:53:35.923Z,74.01
2017-12-20T10:54:37.784Z,73.72
2017-12-20T10:55:39.702Z,73.72
2017-12-20T10:56:41.459Z,73.53
2017-12-20T10:57:43.285Z,73.53
2017-12-20T10:58:45.152Z,73.53
2017-12-20T10:59:47.017Z,73.34
2017-12-20T11:00:48.883Z,73.53
2017-12-20T11:02:03.025Z,73.44
2017-12-20T11:03:04.914Z,72.86
2017-12-20T11:04:06.795Z,72.77
2017-12-20T11:05:08.665Z,72.77
2017-12-20T11:06:10.490Z,72.58
2017-12-20T11:07:12.294Z,72.86
2017-12-20T11:08:14.164Z,72.58
2017-12-20T11:09:16.050Z,72.77
2017-12-20T11:10:17.912Z,72.77
2017-12-20T11:11:32.055Z,72.96
2017-12-20T11:12:33.918Z,73.34
2017-12-20T11:13:35.776Z,72.96
2017-12-20T11:14:37.642Z,72.86
2017-12-20T11:15:39.471Z,72.39
2017-12-20T11:16:41.298Z,72.77
2017-12-20T11:17:43.190Z,72.81
2017-12-20T11:18:45.074Z,72.33
2017-12-20T11:19:46.934Z,71.95
2017-12-20T11:21:01.071Z,72.33
2017-12-20T11:22:02.940Z,72.42
2017-12-20T11:23:04.827Z,72.42
2017-12-20T11:24:06.713Z,71.86
2017-12-20T11:25:08.539Z,71.86
2017-12-20T11:26:10.370Z,71.47
2017-12-20T11:27:12.235Z,71.09
2017-12-20T11:28:14.114Z,71.09
2017-12-20T11:29:16.000Z,70.90
2017-12-20T11:30:30.141Z,70.14
2017-12-20T11:31:32.148Z,70.20
2017-12-20T11:32:34.013Z,70.58
2017-12-20T11:33:35.898Z,70.87
2017-12-20T11:34:37.719Z,71.34
2017-12-20T11:35:39.525Z,71.63
2017-12-20T11:36:41.389Z,70.68
2017-12-20T11:37:43.271Z,71.25
2017-12-20T11:38:45.149Z,71.00
2017-12-20T11:39:59.291Z,70.77
2017-12-20T11:41:01.177Z,70.30
2017-12-20T11:42:03.042Z,69.73
2017-12-20T11:43:04.905Z,69.54
2017-12-20T11:44:06.711Z,69.06
2017-12-20T11:45:08.539Z,69.54
2017-12-20T11:46:10.407Z,69.92
2017-12-20T11:47:12.292Z,70.39
2017-12-20T11:48:14.159Z,70.39
2017-12-20T11:49:28.298Z,70.39
2017-12-20T11:50:30.161Z,70.30
2017-12-20T11:51:32.044Z,69.82
2017-12-20T11:52:33.917Z,69.92
2017-12-20T11:53:35.723Z,69.73
2017-12-20T11:54:37.525Z,69.92
2017-12-20T11:55:39.412Z,70.93
2017-12-20T11:56:41.300Z,71.12
2017-12-20T11:57:43.164Z,71.88
2017-12-20T11:58:57.406Z,72.16
2017-12-20T11:59:59.303Z,71.97
2017-12-20T12:01:01.166Z,71.97
2017-12-20T12:02:03.036Z,72.16
2017-12-20T12:03:04.873Z,71.97
2017-12-20T12:04:06.677Z,72.07
2017-12-20T12:05:08.530Z,72.26
2017-12-20T12:06:10.352Z,72.16
2017-12-20T12:07:12.278Z,72.07
2017-12-20T12:08:26.462Z,71.97
2017-12-20T12:09:28.355Z,72.35
2017-12-20T12:10:30.244Z,72.49
2017-12-20T12:11:32.113Z,72.92
2017-12-20T12:12:33.918Z,72.64
2017-12-20T12:13:35.743Z,73.02
2017-12-20T12:14:37.636Z,72.64
2017-12-20T12:15:39.526Z,72.83
2017-12-20T12:16:41.417Z,73.21
2017-12-20T12:17:55.581Z,73.11
2017-12-20T12:18:57.445Z,73.02
2017-12-20T12:19:59.355Z,72.83
2017-12-20T12:21:01.220Z,72.55
2017-12-20T12:22:03.024Z,72.55
2017-12-20T12:23:04.829Z,72.16
2017-12-20T12:24:06.695Z,72.07
2017-12-20T12:25:08.564Z,72.07
2017-12-20T12:26:10.456Z,72.16
2017-12-20T12:27:24.622Z,71.97
2017-12-20T12:28:26.505Z,72.74
2017-12-20T12:29:28.379Z,73.02
2017-12-20T12:30:30.267Z,72.83
2017-12-20T12:31:32.070Z,73.11
2017-12-20T12:32:33.872Z,73.11
2017-12-20T12:33:35.743Z,73.69
2017-12-20T12:34:37.606Z,74.16
2017-12-20T12:35:39.480Z,74.44
2017-12-20T12:36:53.671Z,73.78
2017-12-20T12:37:55.561Z,73.30
2017-12-20T12:38:57.410Z,73.49
2017-12-20T12:39:59.320Z,73.88
2017-12-20T12:41:01.146Z,74.35
2017-12-20T12:42:02.948Z,74.26
2017-12-20T12:43:04.841Z,74.82
2017-12-20T12:44:06.668Z,74.73
2017-12-20T12:45:08.497Z,75.11
2017-12-20T12:46:22.658Z,74.63
2017-12-20T12:47:24.553Z,74.63
2017-12-20T12:48:26.443Z,74.16
2017-12-20T12:49:28.333Z,74.63
2017-12-20T12:50:30.136Z,74.73
2017-12-20T12:51:31.939Z,74.07
2017-12-20T12:52:33.810Z,74.22
2017-12-20T12:53:35.669Z,74.12
2017-12-20T12:54:37.544Z,74.03
2017-12-20T12:55:51.678Z,75.07
2017-12-20T12:56:53.566Z,74.79
2017-12-20T12:57:55.438Z,75.51
2017-12-20T12:58:57.328Z,76.08
2017-12-20T12:59:59.133Z,76.37
2017-12-20T13:01:00.959Z,77.03
2017-12-20T13:02:02.824Z,77.41
2017-12-20T13:03:04.695Z,77.36
2017-12-20T13:04:06.560Z,77.26
2017-12-20T13:05:20.701Z,76.97
2017-12-20T13:06:22.590Z,76.78
2017-12-20T13:07:24.481Z,76.97
2017-12-20T13:08:26.366Z,76.31
2017-12-20T13:09:28.171Z,76.31
2017-12-20T13:10:29.976Z,76.78
2017-12-20T13:11:31.870Z,76.78
2017-12-20T13:12:33.759Z,76.21
2017-12-20T13:13:35.654Z,76.69
2017-12-20T13:14:49.838Z,76.69
2017-12-20T13:15:51.704Z,76.97
2017-12-20T13:16:53.592Z,76.88
2017-12-20T13:17:55.461Z,77.36
2017-12-20T13:18:57.288Z,76.88
2017-12-20T13:19:59.114Z,77.07
2017-12-20T13:21:00.981Z,77.60
2017-12-20T13:22:02.846Z,77.41
2017-12-20T13:23:04.710Z,77.70
2017-12-20T13:24:18.854Z,77.41
2017-12-20T13:25:20.746Z,77.89
2017-12-20T13:26:22.618Z,78.36
2017-12-20T13:27:24.508Z,78.27
2017-12-20T13:28:26.311Z,78.83
2017-12-20T13:29:28.136Z,78.83
2017-12-20T13:30:30.006Z,79.12
2017-12-20T13:31:31.897Z,79.31
2017-12-20T13:32:33.826Z,79.69
2017-12-20T13:33:47.917Z,79.60